Archival Weather

Snohomish County (Paine Fld)

Everett, Washington (KPAE)

Report from: Sunday, November 19, 2023 5:53 AM PST
Current time: Sunday, June 16, 2024 11:21 PM PDT

Current weather – Weather history – Daily summaries
Weather forecast

Temperature7.2°C (45.0°F)
Wind chill5.5°C (41.8°F)
Dew point5.0°C (41.0°F)
Winds 5 kts (2.6 m/s, 5.8 mph) South-Southwest (210°)
Visibility10 mi. (16.1 km)
Clouds Ceiling: Broken clouds 3,300 ft. (1,006 m)
Broken clouds 4,400 ft. (1,341 m)
Overcast 7,000 ft. (2,134 m)
Altimeter30.04 in.Hg (1017 mB)
Precipitiation0.13 in. (3 mm)
Precip. events Rain began 12:58 PM
Rain ended 1:46 PM
Relative humidity86 %
Density altitude-949 ft. (-289 m)
Sea-level pressure101.7 kPa (1017 mB, 30.04 in.Hg)
Remarks Fully automated report
Automated weather observing station with precipitation discriminator
Flight conditions Visual Meteorological Conditions
Raw dataKPAE 191353Z AUTO 21005KT 10SM BKN033 BKN044 OVC070 07/05 A3004 RMK AO2 RAB1258E46 SLP173 P0013 T00720050
An error has occurred. This application may no longer respond until reloaded. Reload 🗙